New Bedford Regional Airport New Bedford US
ICAO: KEWB
IATA: EWB
Category: Medium
Scheduled Services: Yes

Elevation: 80 ft
TransAlt. 18000 ft.

Airport Communications:
PROVIDENCE APP/DEP:128.7
ATIS:126.85
CTAF:118.1
GND:121.9
TWR:118.1
UNICOM:122.95

KEWB Zoom In..

If you have problems with the map follow the link
https://www.worldairports.se/pages/airport.php?
ICAO=KEWB

Runways:

(A) RW 05 length 4997 ft width 150 ft
ILS 109.70 / hdg 54

(B) RW 14 length 5000 ft width 150 ft
---- / hdg 144

(C) RW 23 length 4997 ft width 150 ft
---- / hdg 234

(D) RW 32 length 5000 ft width 150 ft
---- / hdg 324

Location; KEWB
Day. 19 / Time. 00.53 Zulu
* Altimeter: 30.04
* Temperature: -02° c. -28.4°f.
* Wind from: 130° Speed 10 kn.
Dewpoint: -02° c.
Visibility: 1/2 Statute Miles.
Conditions: Snow.Conditions: Freezing fog.

KEWB 190053Z 13010KT 1/2SM R05/3500V5000FT SN FZFG VV005 M02/M02 A3004 RMK AO2 PRESFR SLP174 P0002 T10171022


Wind From 130°
Speed 10 kn.

 
 
jpsmedia worldairports.se 2020   terms of use